Open Full Screen Window  High Contrast Mode
Wind Gusting 22 knots
15
November 21, 2017 1:55 PM EST
Weather Information
Wind Direction
  230 °
Wind Speed
  15 kt (17 mph)
Wind Gust
  22 kt (25 mph)
Altimeter
29.93 in
Visibility
10 SM
Temperature
14° C
57° F
Dewpoint
-04° C
25° F
Humidity
29%
1hr Rain Fall
00.00 in.
24hr Rain Fall
00.00 in.
Sky Condition
Clear
VFR

METAR KI69 211855Z AUTO 23015G22KT 10SM CLR 14/M04 A2993 RMK AO2 T01351036

*Background is not an actual portrayal of the airport.